sensor_id;sensor_type;location;lat;lon;timestamp;temperature;humidity
3866;DHT22;1948;53.250;10.412;2023-01-26T00:02:01;-0.40;99.90
3866;DHT22;1948;53.250;10.412;2023-01-26T00:04:30;-0.50;99.90
3866;DHT22;1948;53.250;10.412;2023-01-26T00:06:56;-0.40;99.90
3866;DHT22;1948;53.250;10.412;2023-01-26T00:09:23;-0.30;99.90
3866;DHT22;1948;53.250;10.412;2023-01-26T00:11:50;-0.30;99.90
3866;DHT22;1948;53.250;10.412;2023-01-26T00:14:17;-0.30;99.90
3866;DHT22;1948;53.250;10.412;2023-01-26T00:16:44;-0.20;99.90
3866;DHT22;1948;53.250;10.412;2023-01-26T00:19:11;-0.20;99.90
3866;DHT22;1948;53.250;10.412;2023-01-26T00:21:38;-0.10;99.90
3866;DHT22;1948;53.250;10.412;2023-01-26T00:24:07;-0.20;99.90
3866;DHT22;1948;53.250;10.412;2023-01-26T00:26:34;-0.20;99.90
3866;DHT22;1948;53.250;10.412;2023-01-26T00:29:04;-0.20;99.90
3866;DHT22;1948;53.250;10.412;2023-01-26T00:31:33;-0.20;99.90
3866;DHT22;1948;53.250;10.412;2023-01-26T00:34:02;-0.30;99.90
3866;DHT22;1948;53.250;10.412;2023-01-26T00:36:29;-0.20;99.90
3866;DHT22;1948;53.250;10.412;2023-01-26T00:38:56;-0.20;99.90
3866;DHT22;1948;53.250;10.412;2023-01-26T00:41:25;-0.20;99.90
3866;DHT22;1948;53.250;10.412;2023-01-26T00:44:11;-0.10;99.90
3866;DHT22;1948;53.250;10.412;2023-01-26T00:46:40;0.00;99.90
3866;DHT22;1948;53.250;10.412;2023-01-26T00:49:07;0.00;99.90
3866;DHT22;1948;53.250;10.412;2023-01-26T00:51:36;0.00;99.90
3866;DHT22;1948;53.250;10.412;2023-01-26T00:54:03;0.10;99.90
3866;DHT22;1948;53.250;10.412;2023-01-26T00:56:34;0.00;99.90
3866;DHT22;1948;53.250;10.412;2023-01-26T00:59:01;0.00;99.90
3866;DHT22;1948;53.250;10.412;2023-01-26T01:01:28;0.00;99.90
3866;DHT22;1948;53.250;10.412;2023-01-26T01:03:58;0.00;99.90
3866;DHT22;1948;53.250;10.412;2023-01-26T01:06:27;0.00;99.90
3866;DHT22;1948;53.250;10.412;2023-01-26T01:08:54;0.00;99.90
3866;DHT22;1948;53.250;10.412;2023-01-26T01:11:23;-0.10;99.90
3866;DHT22;1948;53.250;10.412;2023-01-26T01:13:52;-0.10;99.90
3866;DHT22;1948;53.250;10.412;2023-01-26T01:16:21;-0.10;99.90
3866;DHT22;1948;53.250;10.412;2023-01-26T01:18:57;-0.10;99.90
3866;DHT22;1948;53.250;10.412;2023-01-26T01:21:24;-0.10;99.90
3866;DHT22;1948;53.250;10.412;2023-01-26T01:23:51;-0.10;99.90
3866;DHT22;1948;53.250;10.412;2023-01-26T01:26:23;0.00;99.90
3866;DHT22;1948;53.250;10.412;2023-01-26T01:28:53;0.00;99.90
3866;DHT22;1948;53.250;10.412;2023-01-26T01:31:24;-0.10;99.90
3866;DHT22;1948;53.250;10.412;2023-01-26T01:33:52;-0.10;99.90
3866;DHT22;1948;53.250;10.412;2023-01-26T01:36:19;-0.20;99.90
3866;DHT22;1948;53.250;10.412;2023-01-26T01:38:47;-0.30;99.90
3866;DHT22;1948;53.250;10.412;2023-01-26T01:41:19;-0.30;99.90
3866;DHT22;1948;53.250;10.412;2023-01-26T01:43:49;-0.30;99.90
3866;DHT22;1948;53.250;10.412;2023-01-26T01:46:29;-0.30;99.90
3866;DHT22;1948;53.250;10.412;2023-01-26T01:49:15;-0.30;99.90
3866;DHT22;1948;53.250;10.412;2023-01-26T01:52:01;-0.20;99.90
3866;DHT22;1948;53.250;10.412;2023-01-26T01:54:51;-0.10;99.90
3866;DHT22;1948;53.250;10.412;2023-01-26T01:57:24;0.00;99.90
3866;DHT22;1948;53.250;10.412;2023-01-26T02:00:07;0.00;99.90
3866;DHT22;1948;53.250;10.412;2023-01-26T02:02:36;0.10;99.90
3866;DHT22;1948;53.250;10.412;2023-01-26T02:05:14;0.10;99.90
3866;DHT22;1948;53.250;10.412;2023-01-26T02:07:47;0.10;99.90
3866;DHT22;1948;53.250;10.412;2023-01-26T02:10:19;0.10;99.90
3866;DHT22;1948;53.250;10.412;2023-01-26T02:12:54;0.10;99.90
3866;DHT22;1948;53.250;10.412;2023-01-26T02:15:27;0.00;99.90
3866;DHT22;1948;53.250;10.412;2023-01-26T02:17:54;0.00;99.90
3866;DHT22;1948;53.250;10.412;2023-01-26T02:26:06;-0.10;99.90
3866;DHT22;1948;53.250;10.412;2023-01-26T02:28:38;0.00;99.90
3866;DHT22;1948;53.250;10.412;2023-01-26T02:31:06;0.10;99.90
3866;DHT22;1948;53.250;10.412;2023-01-26T02:33:34;0.20;99.90
3866;DHT22;1948;53.250;10.412;2023-01-26T02:36:07;0.20;99.90
3866;DHT22;1948;53.250;10.412;2023-01-26T02:38:43;0.20;99.90
3866;DHT22;1948;53.250;10.412;2023-01-26T02:41:14;0.30;99.90
3866;DHT22;1948;53.250;10.412;2023-01-26T02:44:04;0.30;99.90
3866;DHT22;1948;53.250;10.412;2023-01-26T02:46:32;0.30;99.90
3866;DHT22;1948;53.250;10.412;2023-01-26T02:48:59;0.20;99.90
3866;DHT22;1948;53.250;10.412;2023-01-26T02:51:45;0.10;99.90
3866;DHT22;1948;53.250;10.412;2023-01-26T02:54:16;0.00;99.90
3866;DHT22;1948;53.250;10.412;2023-01-26T02:57:07;-0.10;99.90
3866;DHT22;1948;53.250;10.412;2023-01-26T02:59:36;0.00;99.90
3866;DHT22;1948;53.250;10.412;2023-01-26T03:02:05;0.10;99.90
3866;DHT22;1948;53.250;10.412;2023-01-26T03:04:33;0.20;99.90
3866;DHT22;1948;53.250;10.412;2023-01-26T03:07:02;0.20;99.90
3866;DHT22;1948;53.250;10.412;2023-01-26T03:09:29;0.20;99.90
3866;DHT22;1948;53.250;10.412;2023-01-26T03:11:56;0.30;99.90
3866;DHT22;1948;53.250;10.412;2023-01-26T03:14:23;0.30;99.90
3866;DHT22;1948;53.250;10.412;2023-01-26T03:16:50;0.30;99.90
3866;DHT22;1948;53.250;10.412;2023-01-26T03:19:17;0.30;99.90
3866;DHT22;1948;53.250;10.412;2023-01-26T03:22:02;0.30;99.90
3866;DHT22;1948;53.250;10.412;2023-01-26T03:24:50;0.20;99.90
3866;DHT22;1948;53.250;10.412;2023-01-26T03:27:46;0.10;99.90
3866;DHT22;1948;53.250;10.412;2023-01-26T03:30:16;0.00;99.90
3866;DHT22;1948;53.250;10.412;2023-01-26T03:32:44;0.00;99.90
3866;DHT22;1948;53.250;10.412;2023-01-26T03:35:11;0.10;99.90
3866;DHT22;1948;53.250;10.412;2023-01-26T03:37:42;0.10;99.90
3866;DHT22;1948;53.250;10.412;2023-01-26T03:40:13;0.20;99.90
3866;DHT22;1948;53.250;10.412;2023-01-26T03:43:08;0.20;99.90
3866;DHT22;1948;53.250;10.412;2023-01-26T03:45:54;0.20;99.90
3866;DHT22;1948;53.250;10.412;2023-01-26T03:48:39;0.20;99.90
3866;DHT22;1948;53.250;10.412;2023-01-26T03:51:30;0.20;99.90
3866;DHT22;1948;53.250;10.412;2023-01-26T03:54:15;0.10;99.90
3866;DHT22;1948;53.250;10.412;2023-01-26T03:57:06;0.00;99.90
3866;DHT22;1948;53.250;10.412;2023-01-26T03:59:37;0.10;99.90
3866;DHT22;1948;53.250;10.412;2023-01-26T04:02:10;0.00;99.90
3866;DHT22;1948;53.250;10.412;2023-01-26T04:04:58;0.00;99.90
3866;DHT22;1948;53.250;10.412;2023-01-26T04:07:44;0.00;99.90
3866;DHT22;1948;53.250;10.412;2023-01-26T04:10:32;-0.10;99.90
3866;DHT22;1948;53.250;10.412;2023-01-26T04:12:59;0.00;99.90
3866;DHT22;1948;53.250;10.412;2023-01-26T04:15:47;0.10;99.90
3866;DHT22;1948;53.250;10.412;2023-01-26T04:18:33;0.20;99.90
3866;DHT22;1948;53.250;10.412;2023-01-26T04:21:18;0.20;99.90
3866;DHT22;1948;53.250;10.412;2023-01-26T04:23:57;0.30;99.90
3866;DHT22;1948;53.250;10.412;2023-01-26T04:26:27;0.30;99.90
3866;DHT22;1948;53.250;10.412;2023-01-26T04:29:05;0.30;99.90
3866;DHT22;1948;53.250;10.412;2023-01-26T04:31:37;0.40;99.90
3866;DHT22;1948;53.250;10.412;2023-01-26T04:34:05;0.40;99.90
3866;DHT22;1948;53.250;10.412;2023-01-26T04:36:37;0.30;99.90
3866;DHT22;1948;53.250;10.412;2023-01-26T04:39:08;0.30;99.90
3866;DHT22;1948;53.250;10.412;2023-01-26T04:41:35;0.30;99.90
3866;DHT22;1948;53.250;10.412;2023-01-26T04:44:02;0.40;99.90
3866;DHT22;1948;53.250;10.412;2023-01-26T04:46:29;0.40;99.90
3866;DHT22;1948;53.250;10.412;2023-01-26T04:48:59;0.50;99.90
3866;DHT22;1948;53.250;10.412;2023-01-26T04:51:26;0.50;99.90
3866;DHT22;1948;53.250;10.412;2023-01-26T04:53:58;0.50;99.90
3866;DHT22;1948;53.250;10.412;2023-01-26T04:56:32;0.60;99.90
3866;DHT22;1948;53.250;10.412;2023-01-26T04:59:05;0.70;99.90
3866;DHT22;1948;53.250;10.412;2023-01-26T05:01:35;0.70;99.90
3866;DHT22;1948;53.250;10.412;2023-01-26T05:04:03;0.60;99.90
3866;DHT22;1948;53.250;10.412;2023-01-26T05:06:31;0.60;99.90
3866;DHT22;1948;53.250;10.412;2023-01-26T05:09:00;0.60;99.90
3866;DHT22;1948;53.250;10.412;2023-01-26T05:11:27;0.60;99.90
3866;DHT22;1948;53.250;10.412;2023-01-26T05:13:54;0.70;99.90
3866;DHT22;1948;53.250;10.412;2023-01-26T05:16:21;0.70;99.90
3866;DHT22;1948;53.250;10.412;2023-01-26T05:18:48;0.70;99.90
3866;DHT22;1948;53.250;10.412;2023-01-26T05:21:15;0.70;99.90
3866;DHT22;1948;53.250;10.412;2023-01-26T05:23:44;0.70;99.90
3866;DHT22;1948;53.250;10.412;2023-01-26T05:26:14;0.80;99.90
3866;DHT22;1948;53.250;10.412;2023-01-26T05:28:44;0.70;99.90
3866;DHT22;1948;53.250;10.412;2023-01-26T05:31:11;0.70;99.90
3866;DHT22;1948;53.250;10.412;2023-01-26T05:33:42;0.70;99.90
3866;DHT22;1948;53.250;10.412;2023-01-26T05:36:11;0.70;99.90
3866;DHT22;1948;53.250;10.412;2023-01-26T05:38:46;0.70;99.90
3866;DHT22;1948;53.250;10.412;2023-01-26T05:41:15;0.60;99.90
3866;DHT22;1948;53.250;10.412;2023-01-26T05:43:44;0.70;99.90
3866;DHT22;1948;53.250;10.412;2023-01-26T05:46:16;0.70;99.90
3866;DHT22;1948;53.250;10.412;2023-01-26T05:48:42;0.60;99.90
3866;DHT22;1948;53.250;10.412;2023-01-26T05:51:11;0.60;99.90
3866;DHT22;1948;53.250;10.412;2023-01-26T05:53:40;0.60;99.90
3866;DHT22;1948;53.250;10.412;2023-01-26T05:56:10;0.70;99.90
3866;DHT22;1948;53.250;10.412;2023-01-26T05:58:41;0.80;99.90
3866;DHT22;1948;53.250;10.412;2023-01-26T06:01:10;0.80;99.90
3866;DHT22;1948;53.250;10.412;2023-01-26T06:03:37;0.80;99.90
3866;DHT22;1948;53.250;10.412;2023-01-26T06:06:07;0.80;99.90
3866;DHT22;1948;53.250;10.412;2023-01-26T06:08:33;0.80;99.90
3866;DHT22;1948;53.250;10.412;2023-01-26T06:11:00;0.80;99.90
3866;DHT22;1948;53.250;10.412;2023-01-26T06:13:30;0.80;99.90
3866;DHT22;1948;53.250;10.412;2023-01-26T06:16:00;0.70;99.90
3866;DHT22;1948;53.250;10.412;2023-01-26T06:18:28;0.70;99.90
3866;DHT22;1948;53.250;10.412;2023-01-26T06:20:58;0.70;99.90
3866;DHT22;1948;53.250;10.412;2023-01-26T06:23:29;0.80;99.90
3866;DHT22;1948;53.250;10.412;2023-01-26T06:25:59;0.80;99.90
3866;DHT22;1948;53.250;10.412;2023-01-26T06:28:30;0.80;99.90
3866;DHT22;1948;53.250;10.412;2023-01-26T06:31:00;0.80;99.90
3866;DHT22;1948;53.250;10.412;2023-01-26T06:33:30;0.60;99.90
3866;DHT22;1948;53.250;10.412;2023-01-26T06:36:10;0.70;99.90
3866;DHT22;1948;53.250;10.412;2023-01-26T06:38:44;0.80;99.90
3866;DHT22;1948;53.250;10.412;2023-01-26T06:41:12;0.90;99.90
3866;DHT22;1948;53.250;10.412;2023-01-26T06:43:39;0.90;99.90
3866;DHT22;1948;53.250;10.412;2023-01-26T06:46:11;0.90;99.90
3866;DHT22;1948;53.250;10.412;2023-01-26T06:48:42;1.00;99.90
3866;DHT22;1948;53.250;10.412;2023-01-26T06:53:56;0.90;99.90
3866;DHT22;1948;53.250;10.412;2023-01-26T06:56:25;0.80;99.90
3866;DHT22;1948;53.250;10.412;2023-01-26T06:58:54;0.80;99.90
3866;DHT22;1948;53.250;10.412;2023-01-26T07:01:24;0.80;99.90
3866;DHT22;1948;53.250;10.412;2023-01-26T07:03:53;0.80;99.90
3866;DHT22;1948;53.250;10.412;2023-01-26T07:06:21;0.80;99.90
3866;DHT22;1948;53.250;10.412;2023-01-26T07:08:47;0.80;99.90
3866;DHT22;1948;53.250;10.412;2023-01-26T07:11:17;0.90;99.90
3866;DHT22;1948;53.250;10.412;2023-01-26T07:13:46;0.90;99.90
3866;DHT22;1948;53.250;10.412;2023-01-26T07:16:18;0.90;99.90
3866;DHT22;1948;53.250;10.412;2023-01-26T07:18:47;1.00;99.90
3866;DHT22;1948;53.250;10.412;2023-01-26T07:21:16;1.00;99.90
3866;DHT22;1948;53.250;10.412;2023-01-26T07:23:45;0.90;99.90
3866;DHT22;1948;53.250;10.412;2023-01-26T07:26:16;0.90;99.90
3866;DHT22;1948;53.250;10.412;2023-01-26T07:28:44;0.90;99.90
3866;DHT22;1948;53.250;10.412;2023-01-26T07:31:13;1.00;99.90
3866;DHT22;1948;53.250;10.412;2023-01-26T07:33:40;1.00;99.90
3866;DHT22;1948;53.250;10.412;2023-01-26T07:36:08;1.10;99.90
3866;DHT22;1948;53.250;10.412;2023-01-26T07:38:37;1.20;99.90
3866;DHT22;1948;53.250;10.412;2023-01-26T07:41:08;1.20;99.90
3866;DHT22;1948;53.250;10.412;2023-01-26T07:43:37;1.20;99.90
3866;DHT22;1948;53.250;10.412;2023-01-26T07:46:10;1.20;99.90
3866;DHT22;1948;53.250;10.412;2023-01-26T07:48:37;1.10;99.90
3866;DHT22;1948;53.250;10.412;2023-01-26T07:51:06;1.20;99.90
3866;DHT22;1948;53.250;10.412;2023-01-26T07:53:35;1.20;99.90
3866;DHT22;1948;53.250;10.412;2023-01-26T07:56:14;1.30;99.90
3866;DHT22;1948;53.250;10.412;2023-01-26T07:58:42;1.30;99.90
3866;DHT22;1948;53.250;10.412;2023-01-26T08:01:12;1.20;99.90
3866;DHT22;1948;53.250;10.412;2023-01-26T08:03:43;1.30;99.90
3866;DHT22;1948;53.250;10.412;2023-01-26T08:06:15;1.30;99.90
3866;DHT22;1948;53.250;10.412;2023-01-26T08:08:43;1.30;99.90
3866;DHT22;1948;53.250;10.412;2023-01-26T08:11:17;1.30;99.90
3866;DHT22;1948;53.250;10.412;2023-01-26T08:13:45;1.30;99.90
3866;DHT22;1948;53.250;10.412;2023-01-26T08:16:17;1.30;99.90
3866;DHT22;1948;53.250;10.412;2023-01-26T08:18:48;1.30;99.90
3866;DHT22;1948;53.250;10.412;2023-01-26T08:21:17;1.30;99.90
3866;DHT22;1948;53.250;10.412;2023-01-26T08:23:48;1.30;99.90
3866;DHT22;1948;53.250;10.412;2023-01-26T08:26:17;1.10;99.90
3866;DHT22;1948;53.250;10.412;2023-01-26T08:28:49;1.10;99.90
3866;DHT22;1948;53.250;10.412;2023-01-26T08:31:18;1.20;99.90
3866;DHT22;1948;53.250;10.412;2023-01-26T08:33:48;1.20;99.90
3866;DHT22;1948;53.250;10.412;2023-01-26T08:36:18;1.30;99.90
3866;DHT22;1948;53.250;10.412;2023-01-26T08:38:50;1.20;99.90
3866;DHT22;1948;53.250;10.412;2023-01-26T08:41:17;1.20;99.90
3866;DHT22;1948;53.250;10.412;2023-01-26T08:43:44;1.30;99.90
3866;DHT22;1948;53.250;10.412;2023-01-26T08:46:14;1.30;99.90
3866;DHT22;1948;53.250;10.412;2023-01-26T08:48:44;1.30;99.90
3866;DHT22;1948;53.250;10.412;2023-01-26T08:51:13;1.30;99.90
3866;DHT22;1948;53.250;10.412;2023-01-26T08:53:40;1.40;99.90
3866;DHT22;1948;53.250;10.412;2023-01-26T08:56:09;1.50;99.90
3866;DHT22;1948;53.250;10.412;2023-01-26T08:58:38;1.50;99.90
3866;DHT22;1948;53.250;10.412;2023-01-26T09:01:09;1.50;99.90
3866;DHT22;1948;53.250;10.412;2023-01-26T09:03:37;1.50;99.90
3866;DHT22;1948;53.250;10.412;2023-01-26T09:06:06;1.60;99.90
3866;DHT22;1948;53.250;10.412;2023-01-26T09:08:35;1.60;99.90
3866;DHT22;1948;53.250;10.412;2023-01-26T09:11:05;1.60;99.90
3866;DHT22;1948;53.250;10.412;2023-01-26T09:13:32;1.70;99.90
3866;DHT22;1948;53.250;10.412;2023-01-26T09:16:03;1.70;99.90
3866;DHT22;1948;53.250;10.412;2023-01-26T09:18:31;1.70;99.90
3866;DHT22;1948;53.250;10.412;2023-01-26T09:21:04;1.80;99.90
3866;DHT22;1948;53.250;10.412;2023-01-26T09:23:37;1.80;99.90
3866;DHT22;1948;53.250;10.412;2023-01-26T09:26:04;1.90;99.90
3866;DHT22;1948;53.250;10.412;2023-01-26T09:28:31;1.90;99.90
3866;DHT22;1948;53.250;10.412;2023-01-26T09:31:09;1.80;99.90
3866;DHT22;1948;53.250;10.412;2023-01-26T09:33:37;1.80;99.90
3866;DHT22;1948;53.250;10.412;2023-01-26T09:36:06;1.80;99.90
3866;DHT22;1948;53.250;10.412;2023-01-26T09:38:34;1.70;99.90
3866;DHT22;1948;53.250;10.412;2023-01-26T09:41:36;1.80;99.90
3866;DHT22;1948;53.250;10.412;2023-01-26T09:44:18;1.80;99.90
3866;DHT22;1948;53.250;10.412;2023-01-26T09:46:53;1.80;99.90
3866;DHT22;1948;53.250;10.412;2023-01-26T09:52:34;1.70;99.90
3866;DHT22;1948;53.250;10.412;2023-01-26T09:55:13;1.70;99.90
3866;DHT22;1948;53.250;10.412;2023-01-26T09:58:00;1.70;99.90
3866;DHT22;1948;53.250;10.412;2023-01-26T10:00:46;1.80;99.90
3866;DHT22;1948;53.250;10.412;2023-01-26T10:08:33;1.90;99.90
3866;DHT22;1948;53.250;10.412;2023-01-26T10:11:09;2.00;99.90
3866;DHT22;1948;53.250;10.412;2023-01-26T10:13:47;2.00;99.90
3866;DHT22;1948;53.250;10.412;2023-01-26T10:16:22;2.00;99.90
3866;DHT22;1948;53.250;10.412;2023-01-26T10:18:57;2.10;99.90
3866;DHT22;1948;53.250;10.412;2023-01-26T10:21:34;2.20;99.90
3866;DHT22;1948;53.250;10.412;2023-01-26T10:24:08;2.30;99.90
3866;DHT22;1948;53.250;10.412;2023-01-26T10:26:37;2.30;99.90
3866;DHT22;1948;53.250;10.412;2023-01-26T10:29:03;2.40;99.90
3866;DHT22;1948;53.250;10.412;2023-01-26T10:31:35;2.40;99.90
3866;DHT22;1948;53.250;10.412;2023-01-26T10:34:19;2.40;99.90
3866;DHT22;1948;53.250;10.412;2023-01-26T10:36:49;2.50;99.90
3866;DHT22;1948;53.250;10.412;2023-01-26T10:39:19;2.60;99.90
3866;DHT22;1948;53.250;10.412;2023-01-26T10:42:00;2.70;99.90
3866;DHT22;1948;53.250;10.412;2023-01-26T10:49:41;2.70;99.90
3866;DHT22;1948;53.250;10.412;2023-01-26T10:52:21;2.60;99.90
3866;DHT22;1948;53.250;10.412;2023-01-26T10:55:11;2.50;99.90
3866;DHT22;1948;53.250;10.412;2023-01-26T10:57:45;2.60;99.90
3866;DHT22;1948;53.250;10.412;2023-01-26T11:00:25;2.60;99.90
3866;DHT22;1948;53.250;10.412;2023-01-26T11:03:18;2.70;99.90
3866;DHT22;1948;53.250;10.412;2023-01-26T11:05:45;2.60;99.90
3866;DHT22;1948;53.250;10.412;2023-01-26T11:08:34;2.70;99.90
3866;DHT22;1948;53.250;10.412;2023-01-26T11:11:03;2.70;99.90
3866;DHT22;1948;53.250;10.412;2023-01-26T11:13:36;2.70;99.90
3866;DHT22;1948;53.250;10.412;2023-01-26T11:16:32;2.80;99.90
3866;DHT22;1948;53.250;10.412;2023-01-26T11:19:16;2.80;99.90
3866;DHT22;1948;53.250;10.412;2023-01-26T11:22:22;2.90;99.90
3866;DHT22;1948;53.250;10.412;2023-01-26T11:25:47;3.00;99.90
3866;DHT22;1948;53.250;10.412;2023-01-26T11:28:31;3.10;99.90
3866;DHT22;1948;53.250;10.412;2023-01-26T11:31:36;3.20;99.90
3866;DHT22;1948;53.250;10.412;2023-01-26T11:37:38;3.30;99.90
3866;DHT22;1948;53.250;10.412;2023-01-26T11:55:12;3.70;99.90
3866;DHT22;1948;53.250;10.412;2023-01-26T11:58:01;3.70;99.90
3866;DHT22;1948;53.250;10.412;2023-01-26T12:00:40;3.70;99.90
3866;DHT22;1948;53.250;10.412;2023-01-26T12:03:42;3.70;99.90
3866;DHT22;1948;53.250;10.412;2023-01-26T12:06:42;3.70;99.90
3866;DHT22;1948;53.250;10.412;2023-01-26T12:12:34;3.60;99.90
3866;DHT22;1948;53.250;10.412;2023-01-26T12:15:35;3.70;99.90
3866;DHT22;1948;53.250;10.412;2023-01-26T12:18:23;3.70;99.90
3866;DHT22;1948;53.250;10.412;2023-01-26T12:21:17;3.70;99.90
3866;DHT22;1948;53.250;10.412;2023-01-26T12:24:02;3.80;99.90
3866;DHT22;1948;53.250;10.412;2023-01-26T12:26:42;3.90;99.90
3866;DHT22;1948;53.250;10.412;2023-01-26T12:29:33;3.90;99.90
3866;DHT22;1948;53.250;10.412;2023-01-26T12:32:13;3.90;99.90
3866;DHT22;1948;53.250;10.412;2023-01-26T12:34:43;3.90;99.90
3866;DHT22;1948;53.250;10.412;2023-01-26T12:38:35;3.80;99.90
3866;DHT22;1948;53.250;10.412;2023-01-26T12:44:11;3.80;99.90
3866;DHT22;1948;53.250;10.412;2023-01-26T12:50:51;3.70;99.90
3866;DHT22;1948;53.250;10.412;2023-01-26T12:53:29;3.80;99.90
3866;DHT22;1948;53.250;10.412;2023-01-26T12:59:02;3.80;99.90
3866;DHT22;1948;53.250;10.412;2023-01-26T13:01:57;3.90;99.90
3866;DHT22;1948;53.250;10.412;2023-01-26T13:04:24;3.80;99.90
3866;DHT22;1948;53.250;10.412;2023-01-26T13:07:02;3.80;99.90
3866;DHT22;1948;53.250;10.412;2023-01-26T13:18:56;3.90;99.90
3866;DHT22;1948;53.250;10.412;2023-01-26T13:21:41;3.90;99.90
3866;DHT22;1948;53.250;10.412;2023-01-26T13:26:58;4.00;99.90
3866;DHT22;1948;53.250;10.412;2023-01-26T13:29:27;3.90;99.90
3866;DHT22;1948;53.250;10.412;2023-01-26T13:34:53;4.00;99.90
3866;DHT22;1948;53.250;10.412;2023-01-26T13:37:32;3.90;99.90
3866;DHT22;1948;53.250;10.412;2023-01-26T13:40:29;3.90;99.90
3866;DHT22;1948;53.250;10.412;2023-01-26T13:43:26;4.00;99.90
3866;DHT22;1948;53.250;10.412;2023-01-26T13:51:27;4.00;99.90
3866;DHT22;1948;53.250;10.412;2023-01-26T13:56:32;3.90;99.90
3866;DHT22;1948;53.250;10.412;2023-01-26T14:01:45;3.90;99.90
3866;DHT22;1948;53.250;10.412;2023-01-26T14:04:21;4.00;99.90
3866;DHT22;1948;53.250;10.412;2023-01-26T14:07:11;4.00;99.90
3866;DHT22;1948;53.250;10.412;2023-01-26T14:09:46;4.00;99.90
3866;DHT22;1948;53.250;10.412;2023-01-26T14:12:24;3.90;99.90
3866;DHT22;1948;53.250;10.412;2023-01-26T14:14:59;4.00;99.90
3866;DHT22;1948;53.250;10.412;2023-01-26T14:17:33;4.00;99.90
3866;DHT22;1948;53.250;10.412;2023-01-26T14:20:31;4.00;99.90
3866;DHT22;1948;53.250;10.412;2023-01-26T14:23:12;4.10;99.90
3866;DHT22;1948;53.250;10.412;2023-01-26T14:25:44;4.10;99.90
3866;DHT22;1948;53.250;10.412;2023-01-26T14:28:16;4.10;99.90
3866;DHT22;1948;53.250;10.412;2023-01-26T14:30:51;4.10;99.90
3866;DHT22;1948;53.250;10.412;2023-01-26T14:33:22;4.10;99.90
3866;DHT22;1948;53.250;10.412;2023-01-26T14:35:56;4.10;99.90
3866;DHT22;1948;53.250;10.412;2023-01-26T14:38:26;4.20;99.90
3866;DHT22;1948;53.250;10.412;2023-01-26T14:40:58;4.10;99.90
3866;DHT22;1948;53.250;10.412;2023-01-26T14:43:26;4.10;99.90
3866;DHT22;1948;53.250;10.412;2023-01-26T14:46:25;4.10;99.90
3866;DHT22;1948;53.250;10.412;2023-01-26T14:49:22;4.20;99.90
3866;DHT22;1948;53.250;10.412;2023-01-26T14:51:57;4.10;99.90
3866;DHT22;1948;53.250;10.412;2023-01-26T14:54:32;4.20;99.90
3866;DHT22;1948;53.250;10.412;2023-01-26T14:57:05;4.20;99.90
3866;DHT22;1948;53.250;10.412;2023-01-26T14:59:36;4.20;99.90
3866;DHT22;1948;53.250;10.412;2023-01-26T15:02:24;4.10;99.90
3866;DHT22;1948;53.250;10.412;2023-01-26T15:05:18;4.20;99.90
3866;DHT22;1948;53.250;10.412;2023-01-26T15:07:50;4.20;99.90
3866;DHT22;1948;53.250;10.412;2023-01-26T15:15:46;4.20;99.90
3866;DHT22;1948;53.250;10.412;2023-01-26T15:18:19;4.30;99.90
3866;DHT22;1948;53.250;10.412;2023-01-26T15:21:14;4.20;99.90
3866;DHT22;1948;53.250;10.412;2023-01-26T15:23:49;4.20;99.90
3866;DHT22;1948;53.250;10.412;2023-01-26T15:26:51;4.20;99.90
3866;DHT22;1948;53.250;10.412;2023-01-26T15:29:29;4.30;99.90
3866;DHT22;1948;53.250;10.412;2023-01-26T15:32:02;4.30;99.90
3866;DHT22;1948;53.250;10.412;2023-01-26T15:34:36;4.30;99.90
3866;DHT22;1948;53.250;10.412;2023-01-26T15:37:30;4.30;99.90
3866;DHT22;1948;53.250;10.412;2023-01-26T15:40:04;4.30;99.90
3866;DHT22;1948;53.250;10.412;2023-01-26T15:42:31;4.30;99.90
3866;DHT22;1948;53.250;10.412;2023-01-26T15:45:19;4.40;99.90
3866;DHT22;1948;53.250;10.412;2023-01-26T15:47:53;4.40;99.90
3866;DHT22;1948;53.250;10.412;2023-01-26T15:50:20;4.30;99.90
3866;DHT22;1948;53.250;10.412;2023-01-26T15:52:53;4.30;99.90
3866;DHT22;1948;53.250;10.412;2023-01-26T15:55:26;4.30;99.90
3866;DHT22;1948;53.250;10.412;2023-01-26T15:57:59;4.30;99.90
3866;DHT22;1948;53.250;10.412;2023-01-26T16:00:26;4.30;99.90
3866;DHT22;1948;53.250;10.412;2023-01-26T16:02:53;4.30;99.90
3866;DHT22;1948;53.250;10.412;2023-01-26T16:05:22;4.20;99.90
3866;DHT22;1948;53.250;10.412;2023-01-26T16:07:49;4.20;99.90
3866;DHT22;1948;53.250;10.412;2023-01-26T16:10:22;4.10;99.90
3866;DHT22;1948;53.250;10.412;2023-01-26T16:12:54;4.10;99.90
3866;DHT22;1948;53.250;10.412;2023-01-26T16:18:05;4.00;99.90
3866;DHT22;1948;53.250;10.412;2023-01-26T16:20:33;4.00;99.90
3866;DHT22;1948;53.250;10.412;2023-01-26T16:23:01;3.90;99.90
3866;DHT22;1948;53.250;10.412;2023-01-26T16:25:31;3.90;99.90
3866;DHT22;1948;53.250;10.412;2023-01-26T16:28:00;3.90;99.90
3866;DHT22;1948;53.250;10.412;2023-01-26T16:30:28;3.90;99.90
3866;DHT22;1948;53.250;10.412;2023-01-26T16:32:54;3.90;99.90
3866;DHT22;1948;53.250;10.412;2023-01-26T16:35:22;3.90;99.90
3866;DHT22;1948;53.250;10.412;2023-01-26T16:37:49;3.90;99.90
3866;DHT22;1948;53.250;10.412;2023-01-26T16:40:17;3.90;99.90
3866;DHT22;1948;53.250;10.412;2023-01-26T16:42:49;3.90;99.90
3866;DHT22;1948;53.250;10.412;2023-01-26T16:45:22;3.90;99.90
3866;DHT22;1948;53.250;10.412;2023-01-26T16:47:54;3.90;99.90
3866;DHT22;1948;53.250;10.412;2023-01-26T16:50:27;4.00;99.90
3866;DHT22;1948;53.250;10.412;2023-01-26T16:52:57;4.00;99.90
3866;DHT22;1948;53.250;10.412;2023-01-26T16:55:24;4.00;99.90
3866;DHT22;1948;53.250;10.412;2023-01-26T16:57:51;4.00;99.90
3866;DHT22;1948;53.250;10.412;2023-01-26T17:00:19;4.00;99.90
3866;DHT22;1948;53.250;10.412;2023-01-26T17:02:52;4.00;99.90
3866;DHT22;1948;53.250;10.412;2023-01-26T17:05:22;4.00;99.90
3866;DHT22;1948;53.250;10.412;2023-01-26T17:07:49;4.00;99.90
3866;DHT22;1948;53.250;10.412;2023-01-26T17:10:16;4.10;99.90
3866;DHT22;1948;53.250;10.412;2023-01-26T17:12:44;4.10;99.90
3866;DHT22;1948;53.250;10.412;2023-01-26T17:15:13;4.10;99.90
3866;DHT22;1948;53.250;10.412;2023-01-26T17:17:40;4.10;99.90
3866;DHT22;1948;53.250;10.412;2023-01-26T17:20:11;4.20;99.90
3866;DHT22;1948;53.250;10.412;2023-01-26T17:22:45;4.20;99.90
3866;DHT22;1948;53.250;10.412;2023-01-26T17:25:17;4.20;99.90
3866;DHT22;1948;53.250;10.412;2023-01-26T17:27:45;4.20;99.90
3866;DHT22;1948;53.250;10.412;2023-01-26T17:30:16;4.20;99.90
3866;DHT22;1948;53.250;10.412;2023-01-26T17:32:48;4.20;99.90
3866;DHT22;1948;53.250;10.412;2023-01-26T17:35:20;4.20;99.90
3866;DHT22;1948;53.250;10.412;2023-01-26T17:37:48;4.20;99.90
3866;DHT22;1948;53.250;10.412;2023-01-26T17:40:15;4.20;99.90
3866;DHT22;1948;53.250;10.412;2023-01-26T17:42:47;4.20;99.90
3866;DHT22;1948;53.250;10.412;2023-01-26T17:45:16;4.20;99.90
3866;DHT22;1948;53.250;10.412;2023-01-26T17:47:43;4.20;99.90
3866;DHT22;1948;53.250;10.412;2023-01-26T17:50:12;4.20;99.90
3866;DHT22;1948;53.250;10.412;2023-01-26T17:52:39;4.10;99.90
3866;DHT22;1948;53.250;10.412;2023-01-26T17:55:06;4.20;99.90
3866;DHT22;1948;53.250;10.412;2023-01-26T17:57:37;4.20;99.90
3866;DHT22;1948;53.250;10.412;2023-01-26T18:00:04;4.30;99.90
3866;DHT22;1948;53.250;10.412;2023-01-26T18:02:36;4.20;99.90
3866;DHT22;1948;53.250;10.412;2023-01-26T18:05:06;4.30;99.90
3866;DHT22;1948;53.250;10.412;2023-01-26T18:07:36;4.30;99.90
3866;DHT22;1948;53.250;10.412;2023-01-26T18:10:06;4.30;99.90